EDDPETNL

Guest
Details From EDDP - Leipzig-halle
To ETNL - Laage
Flight Number -
Tags Generated
Created
Modified
Stats Distance 151 nm / 279 km
Max Altitude 0 ft / 0 m
Waypoints 2
Social Downloads 2
Likes 0
Share VATSIM

Download

Looking for another format? Having issues loading an existing format? Contact us
Advertisement - Login to hide

Notes

Generated

Route

EDDP ETNL

ID Type Via Altitude Latitude Longitude Leg Dist Tot Dist Heading (true) Name
O EDDP APT - 0 ft / 0 m 51.41160˚ 12.20459˚ - 0 nm - -
O ETNL APT - 0 ft / 0 m 53.91967˚ 12.26033˚ 150 nm 150 nm 1° / 1° -

Altitude Profile

Advertisement - Login to hide

EDDP

Details ICAO EDDP (LEJ)
Name Leipzig-Halle
Region Germany - Civil
Timezone Europe/Berlin (UTC+1.0)
Stats Elevation 464 ft / 141 m (AMSL)
Location 51.422631° 12.236042°
Runways 2
Magnetic Variation 3.394° E

METAR

EDDP 110920Z 18003KT 150V220 9999 FEW010 BKN033 BKN110 06/03 Q0987 NOSIG

Decode

TAF

TAF EDDP 110500Z 1106/1206 20020G35KT 9999 BKN030 BECMG 1106/1108 18008KT BECMG 1108/1110 12006KT PROB40 TEMPO 1111/1114 4000 -RA BKN012 BECMG 1116/1118 19012KT BECMG 1121/1124 20015G25KT TEMPO 1200/1206 24020G35KT

Decode

Departure Runways

ID Width Length Bearing (true) Bearing (mag) Surface Threshold Offset Overrun Length
08L 148 ft / 45 m 11,776 ft / 3,589 m 85.70° 82.31° Concrete 0 ft / 0 m 0 ft / 0 m
08R 197 ft / 60 m 11,777 ft / 3,590 m 85.68° 82.29° Concrete 0 ft / 0 m 0 ft / 0 m
26L 197 ft / 60 m 11,777 ft / 3,590 m 265.72° 262.33° Concrete 0 ft / 0 m 0 ft / 0 m
26R 148 ft / 45 m 11,776 ft / 3,589 m 265.74° 262.35° Concrete 0 ft / 0 m 0 ft / 0 m

ETNL

Details ICAO ETNL (RLG)
Name Laage
Region Germany - Military
Timezone Europe/Berlin (UTC+1.0)
Stats Elevation 138 ft / 42 m (AMSL)
Location 53.918084° 12.279250°
Runways 1
Magnetic Variation 3.517° E

METAR

ETNL 110920Z VRB03KT 6000 SCT004 BKN011 M00/M01 Q0986 GRN GRN TEMPO YLO

Decode

TAF

TAF ETNL 102300Z 1100/1112 12012G22KT 4000 -SN BKN006 OVC012 TEMPO 1100/1104 22015G25KT 0600 SN VV002 BECMG 1104/1106 24010KT 3000 BR OVC004 TEMPO 1104/1110 27007KT 1000 -SN BKN002 OVC003 BY ETGL

Decode

Destination Runways

ID Width Length Bearing (true) Bearing (mag) Surface Threshold Offset Overrun Length
10 148 ft / 45 m 8,213 ft / 2,503 m 98.07° 94.55° Concrete 0 ft / 0 m 1,001 ft / 305 m
28 148 ft / 45 m 8,213 ft / 2,503 m 278.10° 274.58° Concrete 0 ft / 0 m 1,001 ft / 305 m

Approach Navaids

Runway Type Ident Frequency Range Bearing (true) Bearing (mag) Slope Elevation
10 Localiser ILAE 108.55 MHz 18 nm / 33 km 97.79° 94.28° - 128 ft / 39 m (AMSL)
10 Glidescope ILAE 108.55 MHz 10 nm / 19 km 98.09° 94.57° 3.00° 186 ft / 57 m (AMSL)
28 Localiser ILAW 108.30 MHz 18 nm / 33 km 277.98° 274.46° - 157 ft / 48 m (AMSL)
28 Glidescope ILAW 108.30 MHz 10 nm / 19 km 278.09° 274.57° 3.00° 159 ft / 48 m (AMSL)